Upper Holland, Pennsylvania
Current Conditions -  °F | °C
As of 6:54 PM on Friday 31 Oct 2014 (Local Time) from KPNE Reporting Station
Overcast Overcast  
Wind Chill: 51°   Ceiling: 5000
Heat Index: 51°   Visibility: 10mi
Dew Point: 34°   Wind: 8mph
Humidity: 52%   Direction: 20°NNE
Pressure: 29.9"   Gusts: NA
Location:  40.1496°N, 74.9856°W
Report Text: KPNE 312254Z AUTO 02007KT 10SM FEW034 OVC050 11/01 A2990 RMK AO2 SLP126 T01060011 TSNO
Loading
Personal Weather Stations






























Interactive Weather Map
Tropical Storm Tracking
New forecast layout! Learn more

10-Day Weather Forecast

Advertisements
Track Severe Weather on mobile